Time;durP1;ratioP1;P1;durP2;ratioP2;P2;SDS_P1;SDS_P2;PMS_P1;PMS_P2;Temp;Humidity;BMP_temperature;BMP_pressure;BME280_temperature;BME280_humidity;BME280_pressure;Samples;Min_cycle;Max_cycle;Signal;HPM_P1;HPM_P2
2023/03/27 02:02:20;;;;;;;9.53;9.03;;;6.10;99.90;;;;;;5197901;23;20657;-76
2023/03/27 02:04:54;;;;;;;9.70;9.20;;;6.00;99.90;;;;;;4939752;29;20216;-78
2023/03/27 02:07:29;;;;;;;9.60;9.10;;;6.00;99.90;;;;;;4933950;29;20203;-76
2023/03/27 02:10:00;;;;;;;9.83;9.33;;;6.00;99.90;;;;;;4947252;29;20223;-77
2023/03/27 02:12:30;;;;;;;9.90;9.40;;;5.90;99.90;;;;;;4947097;29;20626;-76
2023/03/27 02:15:02;;;;;;;10.20;9.70;;;5.90;99.90;;;;;;4941977;29;20198;-76
2023/03/27 02:17:33;;;;;;;10.30;9.70;;;5.90;99.90;;;;;;4952142;29;20599;-76
2023/03/27 02:20:09;;;;;;;10.30;9.80;;;5.90;99.90;;;;;;4942189;29;20201;-76
2023/03/27 02:22:38;;;;;;;9.90;9.30;;;5.90;99.90;;;;;;4948582;29;20241;-78
2023/03/27 02:25:24;;;;;;;10.20;9.70;;;5.80;99.90;;;;;;4939019;29;20751;-77
2023/03/27 02:28:00;;;;;;;9.60;9.10;;;5.80;99.90;;;;;;4940688;29;20645;-76
2023/03/27 02:30:32;;;;;;;9.70;9.10;;;5.60;99.90;;;;;;4946355;29;20266;-77
2023/03/27 02:33:13;;;;;;;9.50;9.00;;;5.60;99.90;;;;;;4943357;29;20632;-78
2023/03/27 02:35:51;;;;;;;9.43;8.83;;;5.60;99.90;;;;;;4937630;29;20674;-77
2023/03/27 02:38:26;;;;;;;9.53;9.03;;;5.50;99.90;;;;;;4941266;29;20205;-77
2023/03/27 02:41:05;;;;;;;10.20;9.60;;;5.60;99.90;;;;;;4940001;29;20732;-82
2023/03/27 02:43:50;;;;;;;10.67;9.97;;;5.50;99.90;;;;;;4940847;29;20218;-80
2023/03/27 02:46:31;;;;;;;11.17;10.47;;;5.50;99.90;;;;;;4954992;29;20219;-79
2023/03/27 02:49:05;;;;;;;12.63;11.40;;;5.40;99.90;;;;;;4955564;28;20204;-79
2023/03/27 02:51:38;;;;;;;12.70;11.60;;;5.30;99.90;;;;;;4941874;29;20216;-80
2023/03/27 02:54:09;;;;;;;12.53;11.63;;;5.30;99.90;;;;;;4925654;29;20202;-79
2023/03/27 02:56:42;;;;;;;13.50;12.50;;;5.20;99.90;;;;;;4934738;29;20200;-79
2023/03/27 02:59:15;;;;;;;13.30;12.30;;;5.10;99.90;;;;;;4944105;29;20642;-80
2023/03/27 03:01:44;;;;;;;13.37;12.37;;;5.10;99.90;;;;;;4932648;29;20251;-81
2023/03/27 03:04:20;;;;;;;14.37;13.00;;;5.10;99.90;;;;;;4932736;29;20240;-80
2023/03/27 03:07:07;;;;;;;13.33;12.33;;;5.00;99.90;;;;;;4932333;29;20309;-80
2023/03/27 03:09:36;;;;;;;15.40;13.83;;;5.00;99.90;;;;;;4932739;29;20204;-82
2023/03/27 03:12:03;;;;;;;15.17;13.80;;;5.00;99.90;;;;;;4934576;29;20251;-80
2023/03/27 03:14:42;;;;;;;14.33;13.03;;;5.00;99.90;;;;;;4932173;29;20199;-81
2023/03/27 03:17:09;;;;;;;14.33;13.20;;;5.00;99.90;;;;;;4941670;29;20204;-80
2023/03/27 03:19:37;;;;;;;15.43;13.83;;;5.00;99.90;;;;;;4936011;29;20743;-83
2023/03/27 03:22:05;;;;;;;14.03;13.03;;;5.00;99.90;;;;;;4945847;29;20224;-81
2023/03/27 03:24:34;;;;;;;14.83;13.63;;;5.00;99.90;;;;;;4948306;29;20222;-79
2023/03/27 03:27:02;;;;;;;14.53;13.30;;;4.90;99.90;;;;;;4947368;29;20204;-80
2023/03/27 03:29:34;;;;;;;15.30;13.90;;;4.90;99.90;;;;;;4955905;29;20199;-80
2023/03/27 03:32:21;;;;;;;14.13;12.73;;;4.80;99.90;;;;;;4953159;29;20227;-80
2023/03/27 03:34:52;;;;;;;13.87;12.67;;;4.70;99.90;;;;;;4947718;29;20215;-77
2023/03/27 03:37:20;;;;;;;14.17;12.93;;;4.60;99.90;;;;;;4950838;29;20203;-77
2023/03/27 03:39:46;;;;;;;14.13;12.67;;;4.40;99.90;;;;;;4937085;29;20204;-78
2023/03/27 03:42:15;;;;;;;14.37;12.83;;;4.40;99.90;;;;;;4938663;29;20315;-76
2023/03/27 03:44:42;;;;;;;13.83;12.53;;;4.30;99.90;;;;;;4943018;29;20225;-76
2023/03/27 03:47:17;;;;;;;15.13;13.53;;;4.20;99.90;;;;;;4937098;29;20235;-78
2023/03/27 03:49:44;;;;;;;13.30;11.97;;;4.20;99.90;;;;;;4940088;29;20626;-76
2023/03/27 03:52:12;;;;;;;12.57;11.53;;;4.10;99.90;;;;;;4930287;29;20215;-78
2023/03/27 03:54:39;;;;;;;13.47;11.63;;;4.10;99.90;;;;;;4935349;29;20210;-78
2023/03/27 03:57:07;;;;;;;13.17;11.87;;;4.10;99.90;;;;;;4930206;29;20192;-76
2023/03/27 03:59:34;;;;;;;12.70;11.70;;;4.00;99.90;;;;;;4942936;29;20661;-75
2023/03/27 04:02:27;;;;;;;14.33;11.50;;;4.00;99.90;;;;;;4948448;29;20321;-77
2023/03/27 04:04:59;;;;;;;12.87;11.43;;;4.00;99.90;;;;;;4950665;29;20245;-77
2023/03/27 04:07:30;;;;;;;14.13;10.60;;;4.00;99.90;;;;;;4946014;29;20195;-76
2023/03/27 04:10:13;;;;;;;12.77;11.40;;;4.00;99.90;;;;;;4941582;29;20207;-76
2023/03/27 04:12:40;;;;;;;11.53;10.50;;;4.00;99.90;;;;;;4945918;29;20271;-75
2023/03/27 04:15:15;;;;;;;12.20;11.00;;;4.00;99.90;;;;;;4945275;29;20677;-76
2023/03/27 04:17:57;;;;;;;11.90;10.80;;;4.00;99.90;;;;;;4948694;28;20215;-77
2023/03/27 04:20:25;;;;;;;11.67;10.57;;;3.90;99.90;;;;;;4948040;29;20198;-77
2023/03/27 04:22:55;;;;;;;11.90;10.77;;;4.00;99.90;;;;;;4948650;28;20194;-77
2023/03/27 04:25:25;;;;;;;12.80;11.60;;;4.00;99.90;;;;;;4944939;29;20246;-76
2023/03/27 04:27:52;;;;;;;12.43;11.30;;;3.90;99.90;;;;;;4949760;29;20202;-78
2023/03/27 04:30:27;;;;;;;12.57;11.57;;;4.00;99.90;;;;;;4943461;29;20209;-78
2023/03/27 04:33:17;;;;;;;12.60;11.40;;;4.00;99.90;;;;;;4943731;29;20215;-78
2023/03/27 04:36:10;;;;;;;13.23;11.87;;;3.90;99.90;;;;;;4946326;29;20230;-76
2023/03/27 04:39:02;;;;;;;12.53;11.30;;;3.90;99.90;;;;;;4947852;29;20209;-77
2023/03/27 04:41:31;;;;;;;12.50;11.40;;;3.90;99.90;;;;;;4937425;29;20231;-77
2023/03/27 04:43:59;;;;;;;12.97;11.53;;;4.00;99.90;;;;;;4937972;29;20584;-79
2023/03/27 04:46:26;;;;;;;16.40;12.13;;;3.90;99.90;;;;;;4951736;29;20637;-77
2023/03/27 04:49:00;;;;;;;12.83;11.43;;;3.90;99.90;;;;;;4941958;29;20195;-76
2023/03/27 04:51:40;;;;;;;13.33;11.67;;;3.80;99.90;;;;;;4942060;29;20261;-76
2023/03/27 04:54:09;;;;;;;12.83;11.67;;;3.80;99.90;;;;;;4951489;29;20241;-77
2023/03/27 04:56:41;;;;;;;13.70;11.43;;;3.80;99.90;;;;;;4948472;29;20195;-76
2023/03/27 04:59:08;;;;;;;12.70;11.47;;;3.80;99.90;;;;;;4946236;29;20322;-76
2023/03/27 05:01:35;;;;;;;15.50;12.77;;;3.80;99.90;;;;;;4944409;29;20257;-78
2023/03/27 05:04:14;;;;;;;13.33;12.10;;;3.70;99.90;;;;;;4943390;29;20258;-77
2023/03/27 05:07:20;;;;;;;13.23;11.93;;;3.70;99.90;;;;;;4936197;29;20282;-80
2023/03/27 05:09:49;;;;;;;12.97;11.53;;;3.60;99.90;;;;;;4949095;29;20293;-77
2023/03/27 05:12:15;;;;;;;12.83;11.27;;;3.60;99.90;;;;;;4948722;29;20231;-78
2023/03/27 05:14:52;;;;;;;14.37;11.93;;;3.60;99.90;;;;;;4951822;29;20256;-77
2023/03/27 05:17:39;;;;;;;14.53;11.60;;;3.50;99.90;;;;;;4944919;29;20700;-78
2023/03/27 05:20:09;;;;;;;12.80;11.33;;;3.50;99.90;;;;;;4936110;29;20208;-77
2023/03/27 05:22:36;;;;;;;15.23;12.20;;;3.50;99.90;;;;;;4950121;29;20216;-77
2023/03/27 05:25:17;;;;;;;11.97;10.77;;;3.50;99.90;;;;;;4954450;29;20293;-76
2023/03/27 05:27:47;;;;;;;12.77;11.67;;;3.40;99.90;;;;;;4946942;29;20230;-77
2023/03/27 05:30:17;;;;;;;13.53;11.43;;;3.40;99.90;;;;;;4945027;29;20209;-76
2023/03/27 05:32:47;;;;;;;13.50;11.37;;;3.30;99.90;;;;;;4943913;29;20695;-76
2023/03/27 05:35:20;;;;;;;12.60;11.30;;;3.30;99.90;;;;;;4940997;28;20661;-76
2023/03/27 05:37:51;;;;;;;11.20;10.20;;;3.20;99.90;;;;;;4946915;29;20246;-76
2023/03/27 05:40:28;;;;;;;12.03;10.80;;;3.30;99.90;;;;;;4946103;29;20566;-76
2023/03/27 05:42:56;;;;;;;12.23;11.13;;;3.30;99.90;;;;;;4947224;29;20203;-76
2023/03/27 05:45:28;;;;;;;12.83;11.50;;;3.30;99.90;;;;;;4952801;29;20202;-77
2023/03/27 05:47:56;;;;;;;13.50;11.00;;;3.40;99.90;;;;;;4943805;29;20245;-76
2023/03/27 05:50:25;;;;;;;12.53;11.23;;;3.30;99.90;;;;;;4944345;29;20289;-76
2023/03/27 05:52:58;;;;;;;11.83;10.80;;;3.30;99.90;;;;;;4952533;29;20205;-77
2023/03/27 05:55:33;;;;;;;11.33;10.53;;;3.30;99.90;;;;;;4947137;29;20199;-77
2023/03/27 05:58:00;;;;;;;17.53;12.73;;;3.40;99.90;;;;;;4946141;29;20194;-76
2023/03/27 06:00:30;;;;;;;12.93;11.80;;;3.40;99.90;;;;;;4944188;29;20199;-76
2023/03/27 06:02:59;;;;;;;13.40;12.13;;;3.40;99.90;;;;;;4946016;29;20190;-76
2023/03/27 06:05:42;;;;;;;13.23;12.03;;;3.40;99.90;;;;;;4932892;29;20299;-76
2023/03/27 06:08:10;;;;;;;12.90;11.87;;;3.50;99.90;;;;;;4941782;29;20204;-76
2023/03/27 06:10:40;;;;;;;13.23;12.13;;;3.40;99.90;;;;;;4953471;29;20191;-76
2023/03/27 06:13:22;;;;;;;13.37;12.13;;;3.40;99.90;;;;;;4952385;29;20206;-76
2023/03/27 06:15:57;;;;;;;12.43;11.50;;;3.40;99.90;;;;;;4950182;29;20273;-76
2023/03/27 06:18:43;;;;;;;12.77;11.27;;;3.30;99.90;;;;;;4938442;29;20227;-77
2023/03/27 06:21:13;;;;;;;13.00;11.83;;;3.30;99.90;;;;;;4936942;29;20290;-76
2023/03/27 06:23:40;;;;;;;12.60;11.50;;;3.30;99.90;;;;;;4939822;29;20202;-77
2023/03/27 06:26:14;;;;;;;12.37;11.57;;;3.30;99.90;;;;;;4948621;29;20230;-78
2023/03/27 06:28:42;;;;;;;14.20;12.23;;;3.30;99.90;;;;;;4945597;29;20598;-77
2023/03/27 06:31:10;;;;;;;12.87;11.60;;;3.30;99.90;;;;;;4943574;29;20251;-78
2023/03/27 06:33:46;;;;;;;12.20;11.00;;;3.30;99.90;;;;;;4946449;29;20573;-78
2023/03/27 06:36:31;;;;;;;12.73;11.73;;;3.30;99.90;;;;;;4947901;29;20247;-77
2023/03/27 06:38:58;;;;;;;12.87;11.60;;;3.30;99.90;;;;;;4940086;29;20205;-77
2023/03/27 06:41:26;;;;;;;11.80;10.73;;;3.30;99.90;;;;;;4951721;29;20260;-77
2023/03/27 06:44:13;;;;;;;12.40;11.20;;;3.30;99.90;;;;;;4916847;29;20238;-79
2023/03/27 06:47:07;;;;;;;12.27;11.27;;;3.40;99.90;;;;;;4948199;28;20313;-78
2023/03/27 06:49:54;;;;;;;12.50;11.47;;;3.40;99.90;;;;;;4941460;29;20195;-78
2023/03/27 06:52:23;;;;;;;13.57;11.23;;;3.30;99.90;;;;;;4950917;29;20230;-77
2023/03/27 06:54:50;;;;;;;12.73;11.37;;;3.20;99.90;;;;;;4945567;29;20681;-78
2023/03/27 06:57:18;;;;;;;13.50;11.60;;;3.20;99.90;;;;;;4945109;29;20206;-77
2023/03/27 06:59:50;;;;;;;12.40;11.50;;;3.20;99.90;;;;;;4943322;29;20241;-78
2023/03/27 07:02:22;;;;;;;12.93;11.77;;;3.20;99.90;;;;;;4946916;29;20235;-80
2023/03/27 07:05:15;;;;;;;12.93;11.90;;;3.20;99.90;;;;;;4951375;29;20628;-79
2023/03/27 07:07:43;;;;;;;12.73;11.63;;;3.30;99.90;;;;;;4946191;29;20230;-78
2023/03/27 07:10:10;;;;;;;12.47;11.47;;;3.30;99.90;;;;;;4946966;29;20194;-75
2023/03/27 07:12:40;;;;;;;13.33;11.93;;;3.40;99.90;;;;;;4934254;29;20237;-79
2023/03/27 07:15:09;;;;;;;12.77;11.53;;;3.40;99.90;;;;;;4940221;29;20202;-77
2023/03/27 07:17:36;;;;;;;15.00;11.77;;;3.50;99.90;;;;;;4938946;29;20604;-77
2023/03/27 07:20:05;;;;;;;12.30;11.30;;;3.50;99.90;;;;;;4945011;29;20201;-78
2023/03/27 07:22:33;;;;;;;13.00;11.60;;;3.60;99.90;;;;;;4944261;28;20214;-78
2023/03/27 07:25:06;;;;;;;12.10;11.23;;;3.60;99.90;;;;;;4944869;29;20200;-78
2023/03/27 07:27:40;;;;;;;12.70;11.60;;;3.70;99.90;;;;;;4947974;29;20222;-78
2023/03/27 07:30:11;;;;;;;12.33;11.10;;;3.60;99.90;;;;;;4945811;29;20209;-77
2023/03/27 07:32:40;;;;;;;11.47;10.67;;;3.70;99.90;;;;;;4938836;29;20246;-77
2023/03/27 07:35:09;;;;;;;11.73;10.77;;;3.70;99.90;;;;;;4945833;29;20199;-78
2023/03/27 07:38:02;;;;;;;12.57;11.27;;;3.80;99.90;;;;;;4946514;29;20201;-79
2023/03/27 07:40:52;;;;;;;12.03;11.03;;;4.00;99.90;;;;;;4946151;29;20309;-78
2023/03/27 07:43:47;;;;;;;12.17;11.07;;;4.10;99.90;;;;;;4934189;29;20743;-77
2023/03/27 07:46:14;;;;;;;12.37;11.27;;;4.20;99.90;;;;;;4932873;29;20223;-78
2023/03/27 07:48:41;;;;;;;11.97;10.83;;;4.10;99.90;;;;;;4929421;29;20242;-78
2023/03/27 07:51:15;;;;;;;12.53;11.33;;;4.10;99.90;;;;;;4932286;29;20231;-78
2023/03/27 07:53:44;;;;;;;12.63;11.20;;;4.20;99.90;;;;;;4930174;29;20209;-78
2023/03/27 07:56:23;;;;;;;13.10;11.63;;;4.10;99.90;;;;;;4952201;29;20205;-77
2023/03/27 07:59:05;;;;;;;11.77;10.87;;;4.20;99.90;;;;;;4946915;28;20226;-78
2023/03/27 08:01:31;;;;;;;12.50;11.40;;;4.30;99.90;;;;;;4947857;29;20241;-78
2023/03/27 08:04:02;;;;;;;12.63;11.37;;;4.30;99.90;;;;;;4946896;29;20198;-78
2023/03/27 08:06:29;;;;;;;11.93;11.00;;;4.20;99.90;;;;;;4944757;29;20227;-78
2023/03/27 08:08:57;;;;;;;12.07;11.10;;;4.30;99.90;;;;;;4948090;29;20708;-77
2023/03/27 08:11:27;;;;;;;11.60;10.90;;;4.30;99.90;;;;;;4945618;29;20228;-78
2023/03/27 08:13:54;;;;;;;12.57;11.37;;;4.30;99.90;;;;;;4949817;29;20203;-77
2023/03/27 08:16:26;;;;;;;12.57;11.30;;;4.30;99.90;;;;;;4952536;29;20194;-78
2023/03/27 08:18:53;;;;;;;12.67;11.50;;;4.40;99.90;;;;;;4935107;29;20199;-78
2023/03/27 08:21:21;;;;;;;11.40;10.40;;;4.50;99.90;;;;;;4953747;29;20223;-78
2023/03/27 08:23:50;;;;;;;11.47;10.47;;;4.50;99.90;;;;;;4950156;29;20246;-78
2023/03/27 08:26:46;;;;;;;11.60;10.67;;;4.60;99.90;;;;;;4949011;29;20309;-78
2023/03/27 08:29:13;;;;;;;11.50;10.40;;;4.60;99.90;;;;;;4940380;29;20638;-78
2023/03/27 08:31:44;;;;;;;11.47;10.40;;;4.80;99.90;;;;;;4943609;29;20219;-78
2023/03/27 08:34:11;;;;;;;11.30;10.40;;;5.00;99.90;;;;;;4946168;29;20255;-78
2023/03/27 08:36:44;;;;;;;10.73;9.80;;;5.20;99.90;;;;;;4948365;29;20202;-79
2023/03/27 08:39:11;;;;;;;11.60;10.60;;;5.30;99.90;;;;;;4957398;29;20226;-80
2023/03/27 08:42:04;;;;;;;11.10;10.20;;;5.60;99.90;;;;;;4945471;29;20228;-81
2023/03/27 08:44:34;;;;;;;11.63;10.73;;;5.80;99.90;;;;;;4948492;29;20209;-79
2023/03/27 08:47:14;;;;;;;16.47;11.00;;;5.80;99.90;;;;;;4955055;29;20314;-80
2023/03/27 08:49:57;;;;;;;11.47;10.67;;;5.90;99.90;;;;;;4941572;29;20199;-77
2023/03/27 08:52:31;;;;;;;11.03;10.13;;;5.80;99.90;;;;;;4945399;29;20221;-77
2023/03/27 08:55:05;;;;;;;10.80;10.10;;;5.80;99.90;;;;;;4948606;29;20261;-77
2023/03/27 08:57:37;;;;;;;10.97;10.00;;;5.80;99.90;;;;;;4949322;29;20287;-78
2023/03/27 09:00:22;;;;;;;11.50;10.60;;;5.90;99.90;;;;;;4947286;29;20212;-74
2023/03/27 09:03:01;;;;;;;10.60;9.70;;;6.00;99.90;;;;;;4954559;29;20716;-79
2023/03/27 09:05:39;;;;;;;10.80;9.80;;;6.00;99.90;;;;;;4953617;29;20226;-77
2023/03/27 09:08:12;;;;;;;10.57;9.57;;;6.10;99.90;;;;;;4945791;29;20689;-77
2023/03/27 09:10:45;;;;;;;9.77;8.97;;;6.10;99.90;;;;;;4934696;28;20381;-77
2023/03/27 09:13:26;;;;;;;12.13;9.40;;;6.00;99.90;;;;;;4932409;29;20830;-77
2023/03/27 09:16:00;;;;;;;10.27;9.40;;;6.00;99.90;;;;;;4933842;29;20207;-77
2023/03/27 09:18:34;;;;;;;10.60;9.60;;;5.90;99.90;;;;;;4939510;29;20234;-77
2023/03/27 09:21:06;;;;;;;10.43;9.33;;;5.90;99.90;;;;;;4953437;29;20216;-77
2023/03/27 09:23:39;;;;;;;13.70;9.40;;;5.70;99.90;;;;;;4955164;29;20211;-77
2023/03/27 09:26:30;;;;;;;10.83;9.90;;;5.60;99.90;;;;;;4953978;29;20216;-77
2023/03/27 09:29:17;;;;;;;10.60;9.77;;;5.60;99.90;;;;;;4947983;29;20212;-76
2023/03/27 09:31:48;;;;;;;11.13;10.10;;;5.80;99.90;;;;;;4941339;29;20224;-77
2023/03/27 09:34:23;;;;;;;11.77;10.07;;;6.10;99.90;;;;;;4966533;28;20749;-77
2023/03/27 09:36:50;;;;;;;11.27;9.07;;;6.40;99.90;;;;;;4944776;29;20200;-75
2023/03/27 09:39:21;;;;;;;9.57;8.70;;;7.30;99.90;;;;;;4940921;29;20205;-76
2023/03/27 09:41:57;;;;;;;10.53;9.83;;;7.90;99.90;;;;;;4936415;29;20277;-75
2023/03/27 09:44:28;;;;;;;9.67;8.77;;;8.20;99.90;;;;;;4945114;29;20333;-75
2023/03/27 09:47:04;;;;;;;9.43;8.73;;;8.30;99.90;;;;;;4946169;29;20636;-78
2023/03/27 09:49:35;;;;;;;10.13;9.10;;;7.90;99.90;;;;;;4934610;29;20202;-76
2023/03/27 09:52:06;;;;;;;10.33;8.90;;;7.80;99.90;;;;;;4931093;29;20223;-77
2023/03/27 09:54:55;;;;;;;10.10;9.13;;;7.90;99.90;;;;;;4927903;29;20662;-77
2023/03/27 09:57:32;;;;;;;9.57;8.80;;;7.80;99.90;;;;;;4932415;29;20199;-75
2023/03/27 10:00:08;;;;;;;10.50;9.40;;;7.80;99.90;;;;;;4930993;29;20239;-77
2023/03/27 10:02:41;;;;;;;10.43;9.53;;;7.90;99.90;;;;;;4935915;29;20273;-77
2023/03/27 10:05:18;;;;;;;11.50;10.50;;;8.50;99.90;;;;;;4930271;29;20199;-78
2023/03/27 10:07:48;;;;;;;10.93;10.23;;;9.00;99.90;;;;;;4938396;29;20306;-77
2023/03/27 10:10:25;;;;;;;10.80;9.90;;;8.90;99.90;;;;;;4935018;29;20289;-77
2023/03/27 10:13:20;;;;;;;10.50;9.60;;;8.80;99.90;;;;;;4926296;29;20308;-77
2023/03/27 10:15:57;;;;;;;10.90;9.87;;;8.50;99.90;;;;;;4923460;29;20286;-77
2023/03/27 10:18:30;;;;;;;11.13;9.87;;;8.60;99.90;;;;;;4931445;29;20196;-77
2023/03/27 10:21:16;;;;;;;10.63;9.83;;;8.80;99.90;;;;;;4929686;29;20709;-77
2023/03/27 10:23:46;;;;;;;10.43;9.70;;;9.00;99.90;;;;;;4932655;29;20692;-77
2023/03/27 10:26:37;;;;;;;10.10;9.30;;;8.90;99.90;;;;;;4934751;29;20298;-77
2023/03/27 10:29:21;;;;;;;9.97;9.27;;;8.70;99.90;;;;;;4948504;29;20582;-78
2023/03/27 10:31:50;;;;;;;11.20;10.20;;;8.80;99.90;;;;;;4928366;29;20261;-77
2023/03/27 10:34:35;;;;;;;10.33;9.63;;;9.30;99.90;;;;;;4928947;29;20276;-78
2023/03/27 10:37:40;;;;;;;9.43;8.70;;;9.70;99.90;;;;;;4919048;29;20211;-78
2023/03/27 10:40:36;;;;;;;10.30;9.30;;;9.90;99.90;;;;;;4931002;29;20210;-79
2023/03/27 10:43:28;;;;;;;9.43;8.73;;;9.50;99.90;;;;;;4925942;29;20766;-78
2023/03/27 10:45:58;;;;;;;9.17;8.47;;;9.50;99.90;;;;;;4932211;29;20198;-78
2023/03/27 10:48:42;;;;;;;8.63;8.03;;;9.20;99.90;;;;;;4938437;29;20219;-77
2023/03/27 10:51:24;;;;;;;8.90;8.20;;;9.30;99.90;;;;;;4935714;29;20219;-78
2023/03/27 10:54:06;;;;;;;9.17;8.37;;;9.70;99.90;;;;;;4926115;29;20223;-77
2023/03/27 10:56:52;;;;;;;9.33;8.63;;;9.50;99.90;;;;;;4931228;29;20261;-77
2023/03/27 10:59:25;;;;;;;9.17;8.40;;;9.40;99.90;;;;;;4932327;29;20223;-77
2023/03/27 11:01:57;;;;;;;8.57;7.90;;;9.40;99.90;;;;;;4933067;29;20235;-77
2023/03/27 11:04:37;;;;;;;9.40;8.60;;;9.20;99.90;;;;;;4930482;29;20214;-77
2023/03/27 11:07:12;;;;;;;9.23;8.47;;;9.40;99.90;;;;;;4934478;29;20253;-77
2023/03/27 11:09:57;;;;;;;9.07;8.37;;;9.20;99.90;;;;;;4932905;29;20208;-77
2023/03/27 11:12:33;;;;;;;9.07;8.27;;;8.80;99.90;;;;;;4924720;29;20851;-79
2023/03/27 11:15:06;;;;;;;9.27;8.33;;;8.70;99.90;;;;;;4936409;29;20295;-79
2023/03/27 11:17:42;;;;;;;8.90;8.30;;;8.70;99.90;;;;;;4929673;29;20275;-80
2023/03/27 11:20:28;;;;;;;8.80;7.93;;;8.70;99.90;;;;;;4937049;29;20203;-80
2023/03/27 11:23:21;;;;;;;9.40;8.67;;;8.90;99.90;;;;;;4927240;29;20793;-80
2023/03/27 11:26:14;;;;;;;8.57;7.97;;;9.10;99.90;;;;;;4928928;29;20302;-80
2023/03/27 11:28:50;;;;;;;9.50;8.60;;;9.20;99.90;;;;;;4927366;29;20226;-81
2023/03/27 11:31:33;;;;;;;9.20;8.40;;;9.30;99.90;;;;;;4926993;29;20261;-80
2023/03/27 11:34:05;;;;;;;8.73;8.00;;;9.50;99.90;;;;;;4922169;29;20201;-80
2023/03/27 11:36:43;;;;;;;9.20;8.50;;;9.50;99.90;;;;;;4943205;29;20223;-78
2023/03/27 11:39:30;;;;;;;9.27;8.57;;;9.10;99.90;;;;;;4931858;29;20203;-80
2023/03/27 11:42:04;;;;;;;8.67;8.07;;;9.00;99.90;;;;;;4940068;29;20305;-80
2023/03/27 11:44:32;;;;;;;8.63;7.93;;;8.90;99.90;;;;;;4936606;29;20225;-79
2023/03/27 11:47:21;;;;;;;8.67;8.07;;;9.30;99.90;;;;;;4938432;29;20258;-78
2023/03/27 11:50:14;;;;;;;10.10;9.20;;;9.50;99.90;;;;;;4934130;29;20586;-78
2023/03/27 11:52:53;;;;;;;9.70;8.90;;;9.60;99.90;;;;;;4930772;29;20227;-77
2023/03/27 11:55:58;;;;;;;9.97;9.17;;;9.30;99.90;;;;;;4935345;29;20567;-78
2023/03/27 11:58:34;;;;;;;10.63;9.63;;;9.00;99.90;;;;;;4937801;29;20698;-78
2023/03/27 12:01:11;;;;;;;10.20;9.40;;;9.00;99.90;;;;;;4930602;29;20337;-77
2023/03/27 12:04:21;;;;;;;9.90;9.20;;;8.90;99.90;;;;;;4929425;29;20650;-78
2023/03/27 12:07:25;;;;;;;9.10;8.50;;;8.80;99.90;;;;;;4927313;29;20670;-77
2023/03/27 12:10:06;;;;;;;9.30;8.60;;;8.60;99.90;;;;;;4933135;29;20205;-77
2023/03/27 12:13:43;;;;;;;9.77;8.90;;;8.60;99.90;;;;;;4862204;29;20212;-78
2023/03/27 12:17:03;;;;;;;9.27;8.57;;;8.90;99.90;;;;;;4924248;29;20206;-77
2023/03/27 12:20:05;;;;;;;9.23;8.43;;;9.30;99.90;;;;;;4945104;28;20222;-77
2023/03/27 12:22:43;;;;;;;9.73;8.83;;;9.00;99.90;;;;;;4930807;29;20607;-78
2023/03/27 12:25:34;;;;;;;9.07;8.30;;;8.90;99.90;;;;;;4926110;29;20689;-77
2023/03/27 12:28:48;;;;;;;9.30;8.60;;;8.60;99.90;;;;;;4917819;29;20591;-77
2023/03/27 12:31:47;;;;;;;9.13;8.53;;;8.50;99.90;;;;;;4927786;29;20650;-77
2023/03/27 12:34:30;;;;;;;9.30;8.70;;;8.90;99.90;;;;;;4930154;29;20203;-77
2023/03/27 12:36:58;;;;;;;8.97;8.37;;;9.20;99.90;;;;;;4928904;29;20253;-77
2023/03/27 12:39:27;;;;;;;8.83;8.23;;;9.40;99.90;;;;;;4931534;29;20746;-80
2023/03/27 12:41:59;;;;;;;9.30;8.60;;;9.50;99.90;;;;;;4931854;29;20223;-79
2023/03/27 12:45:02;;;;;;;9.57;8.97;;;9.30;99.90;;;;;;4926778;29;20211;-80
2023/03/27 12:47:29;;;;;;;9.00;8.40;;;9.00;99.90;;;;;;4942384;29;20208;-78
2023/03/27 12:50:19;;;;;;;8.90;8.30;;;8.80;99.90;;;;;;4923292;29;20753;-80
2023/03/27 12:52:46;;;;;;;9.07;8.33;;;8.80;99.90;;;;;;4938223;29;20254;-77
2023/03/27 12:55:31;;;;;;;9.10;8.30;;;9.00;99.90;;;;;;4948151;29;20207;-77
2023/03/27 12:57:58;;;;;;;9.10;8.30;;;9.10;99.90;;;;;;4942622;28;20202;-77
2023/03/27 13:00:53;;;;;;;9.20;8.60;;;9.30;99.90;;;;;;4942349;28;20319;-77
2023/03/27 13:03:56;;;;;;;8.93;8.20;;;9.20;99.90;;;;;;4945067;29;20206;-77
2023/03/27 13:06:33;;;;;;;9.10;8.50;;;9.30;99.90;;;;;;4935909;29;20298;-77
2023/03/27 13:09:33;;;;;;;9.23;8.53;;;9.30;99.90;;;;;;4932761;29;20218;-77
2023/03/27 13:12:30;;;;;;;9.20;8.47;;;9.20;99.90;;;;;;4945895;29;20215;-80
2023/03/27 13:15:19;;;;;;;8.60;8.00;;;9.20;99.90;;;;;;4927603;29;20286;-79
2023/03/27 13:18:08;;;;;;;8.77;8.10;;;9.10;99.90;;;;;;4941123;29;20406;-80
2023/03/27 13:20:47;;;;;;;8.90;8.20;;;9.00;99.90;;;;;;4946795;29;20210;-80
2023/03/27 13:23:29;;;;;;;9.33;8.60;;;8.70;99.90;;;;;;4943212;29;20256;-80
2023/03/27 13:26:12;;;;;;;8.90;8.30;;;8.60;99.90;;;;;;4950742;29;20199;-77
2023/03/27 13:28:47;;;;;;;9.17;8.57;;;8.60;99.90;;;;;;4939707;29;20208;-77
2023/03/27 13:31:49;;;;;;;11.23;9.20;;;8.60;99.90;;;;;;4943953;29;20659;-77
2023/03/27 13:34:36;;;;;;;8.90;8.30;;;8.70;99.90;;;;;;4938309;29;20203;-77
2023/03/27 13:37:52;;;;;;;9.10;8.30;;;8.70;99.90;;;;;;4941514;29;20203;-77
2023/03/27 13:40:29;;;;;;;8.73;8.03;;;8.70;99.90;;;;;;4931838;29;20223;-79
2023/03/27 13:43:24;;;;;;;8.50;7.80;;;8.70;99.90;;;;;;4933684;29;20212;-80
2023/03/27 13:46:06;;;;;;;8.90;8.10;;;9.00;99.90;;;;;;4943826;29;20207;-79
2023/03/27 13:49:08;;;;;;;8.37;7.83;;;9.10;99.90;;;;;;4935743;29;20235;-79
2023/03/27 13:52:21;;;;;;;9.10;8.27;;;9.40;99.90;;;;;;4906410;29;20602;-80
2023/03/27 13:55:17;;;;;;;8.93;8.23;;;9.50;99.90;;;;;;4941914;29;20342;-80
2023/03/27 13:58:21;;;;;;;8.90;8.30;;;9.50;99.90;;;;;;4944706;29;20249;-81
2023/03/27 14:01:20;;;;;;;9.30;8.57;;;9.50;99.90;;;;;;4943434;29;20654;-81
2023/03/27 14:04:24;;;;;;;9.03;8.30;;;9.50;99.90;;;;;;4933147;29;20203;-81
2023/03/27 14:07:45;;;;;;;9.27;8.67;;;9.30;99.90;;;;;;4937526;29;20199;-80
2023/03/27 14:10:35;;;;;;;8.93;8.27;;;9.10;99.90;;;;;;4929578;29;20242;-78
2023/03/27 14:13:23;;;;;;;9.00;8.30;;;9.00;99.90;;;;;;4931083;29;20252;-78
2023/03/27 14:16:17;;;;;;;9.20;8.43;;;9.10;99.90;;;;;;4936581;29;20199;-77
2023/03/27 14:19:17;;;;;;;9.50;8.70;;;9.20;99.90;;;;;;4928860;29;20203;-77
2023/03/27 14:21:55;;;;;;;8.90;8.40;;;9.20;99.90;;;;;;4933978;29;20295;-77
2023/03/27 14:24:32;;;;;;;8.53;8.03;;;9.10;99.90;;;;;;4932746;29;20203;-76
2023/03/27 14:27:12;;;;;;;8.60;8.10;;;9.00;99.90;;;;;;4927732;29;20203;-79
2023/03/27 14:29:40;;;;;;;9.10;8.50;;;8.80;99.90;;;;;;4932817;29;20230;-78
2023/03/27 14:32:13;;;;;;;9.03;8.43;;;8.70;99.90;;;;;;4931529;29;20227;-81
2023/03/27 14:34:52;;;;;;;9.40;8.70;;;8.50;99.90;;;;;;4931748;29;20207;-80
2023/03/27 14:37:38;;;;;;;9.10;8.60;;;8.30;99.90;;;;;;4934871;29;20604;-76
2023/03/27 14:40:22;;;;;;;9.30;8.70;;;8.10;99.90;;;;;;4931795;29;20216;-77
2023/03/27 14:42:51;;;;;;;9.30;8.70;;;7.80;99.90;;;;;;4933313;29;20207;-77
2023/03/27 14:45:22;;;;;;;9.30;8.60;;;7.50;99.90;;;;;;4926842;29;20251;-79
2023/03/27 14:47:56;;;;;;;8.87;8.00;;;7.40;99.90;;;;;;4928170;29;20255;-80
2023/03/27 14:50:26;;;;;;;9.33;8.67;;;7.30;99.90;;;;;;4935772;29;20265;-77
2023/03/27 14:52:56;;;;;;;8.13;7.53;;;7.20;99.90;;;;;;4934663;29;20214;-77
2023/03/27 14:55:34;;;;;;;8.87;8.17;;;6.80;99.90;;;;;;4933407;29;20318;-77
2023/03/27 14:58:22;;;;;;;9.40;8.70;;;6.60;99.90;;;;;;4932773;29;20196;-77
2023/03/27 15:00:55;;;;;;;9.30;8.60;;;6.60;99.90;;;;;;4933055;29;20254;-81
2023/03/27 15:03:25;;;;;;;9.67;8.93;;;6.60;99.90;;;;;;4931702;29;20213;-80
2023/03/27 15:05:59;;;;;;;8.30;7.60;;;6.50;99.90;;;;;;4935662;29;20213;-77
2023/03/27 15:08:35;;;;;;;8.37;7.57;;;6.40;99.90;;;;;;4930457;29;20226;-77
2023/03/27 15:11:22;;;;;;;8.37;7.67;;;6.50;99.90;;;;;;4929266;29;20313;-78
2023/03/27 15:14:00;;;;;;;7.50;7.00;;;6.60;99.90;;;;;;4930873;29;20212;-76
2023/03/27 15:16:34;;;;;;;7.17;6.57;;;6.80;99.90;;;;;;4933374;29;20237;-76
2023/03/27 15:19:08;;;;;;;6.97;6.40;;;6.90;99.90;;;;;;4939105;29;20578;-77
2023/03/27 15:21:45;;;;;;;7.03;6.43;;;6.80;99.90;;;;;;4930998;29;20223;-78
2023/03/27 15:24:16;;;;;;;7.47;6.77;;;6.80;99.90;;;;;;4933411;29;20209;-77
2023/03/27 15:26:43;;;;;;;7.17;6.50;;;6.80;99.90;;;;;;4932202;29;20207;-78
2023/03/27 15:29:17;;;;;;;7.27;6.57;;;6.80;99.90;;;;;;4932653;29;20252;-77
2023/03/27 15:31:49;;;;;;;7.93;6.97;;;6.90;99.90;;;;;;4935436;29;20223;-77
2023/03/27 15:34:23;;;;;;;8.33;6.80;;;6.90;99.90;;;;;;4936038;29;20206;-77
2023/03/27 15:36:57;;;;;;;7.30;6.70;;;7.00;99.90;;;;;;4935784;29;20698;-77
2023/03/27 15:39:25;;;;;;;7.73;7.13;;;7.10;99.90;;;;;;4936250;29;20210;-78
2023/03/27 15:41:52;;;;;;;7.63;7.03;;;7.00;99.90;;;;;;4937186;29;20226;-77